Time;durP1;ratioP1;P1;durP2;ratioP2;P2;SDS_P1;SDS_P2;PMS_P1;PMS_P2;Temp;Humidity;BMP_temperature;BMP_pressure;BME280_temperature;BME280_humidity;BME280_pressure;Samples;Min_cycle;Max_cycle;Signal;HPM_P1;HPM_P2
2022/03/17 00:02:19;;;;;;;39.38;20.60;;;;;;;3.46;91.65;97928.50;5027277;28;20049;-65
2022/03/17 00:04:45;;;;;;;36.42;21.92;;;;;;;3.43;91.75;97936.91;5026571;28;20045;-65
2022/03/17 00:07:12;;;;;;;34.95;21.25;;;;;;;3.40;91.54;97937.31;5027117;28;20045;-65
2022/03/17 00:09:39;;;;;;;42.38;23.10;;;;;;;3.47;92.07;97932.03;5027163;28;20045;-65
2022/03/17 00:12:08;;;;;;;34.72;20.50;;;;;;;3.52;91.64;97940.31;5027812;28;20064;-66
2022/03/17 00:14:36;;;;;;;41.10;23.17;;;;;;;3.57;91.10;97948.59;5026676;28;20100;-65
2022/03/17 00:17:03;;;;;;;40.97;23.00;;;;;;;3.66;91.57;97954.66;5027098;28;20049;-64
2022/03/17 00:19:30;;;;;;;36.80;20.52;;;;;;;3.79;90.82;97947.75;5027179;28;20128;-64
2022/03/17 00:21:57;;;;;;;37.53;20.95;;;;;;;3.99;89.85;97945.22;5024963;28;20047;-65
2022/03/17 00:24:23;;;;;;;39.38;21.27;;;;;;;3.92;89.86;97950.53;5027653;28;20045;-65
2022/03/17 00:26:51;;;;;;;35.80;20.52;;;;;;;3.86;89.94;97941.41;5028568;28;20069;-65
2022/03/17 00:29:19;;;;;;;37.60;21.30;;;;;;;3.93;91.53;97938.78;5027501;28;20140;-65
2022/03/17 00:31:45;;;;;;;36.65;21.02;;;;;;;3.73;90.35;97936.75;5026734;28;20041;-66
2022/03/17 00:34:12;;;;;;;31.13;20.27;;;;;;;3.63;90.54;97928.25;5027085;28;20046;-65
2022/03/17 00:36:38;;;;;;;34.88;20.98;;;;;;;3.61;91.36;97924.94;5026270;28;20581;-66
2022/03/17 00:39:07;;;;;;;35.53;20.70;;;;;;;3.59;90.96;97926.97;5026444;28;20044;-65
2022/03/17 00:41:34;;;;;;;40.22;23.45;;;;;;;3.63;91.64;97933.59;5027086;28;20041;-66
2022/03/17 00:44:01;;;;;;;40.92;24.13;;;;;;;3.57;91.61;97931.72;5025893;28;20138;-64
2022/03/17 00:46:27;;;;;;;39.75;22.38;;;;;;;3.63;91.51;97923.72;5025946;28;20512;-65
2022/03/17 00:48:54;;;;;;;38.28;21.40;;;;;;;3.89;90.61;97933.00;5026712;28;20037;-66
2022/03/17 00:51:20;;;;;;;36.90;21.67;;;;;;;4.05;89.53;97936.38;5026131;28;20053;-65
2022/03/17 00:53:47;;;;;;;36.65;22.17;;;;;;;3.84;90.09;97939.97;5025563;28;20041;-65
2022/03/17 01:08:13;;;;;;;33.43;20.10;;;;;;;4.15;87.98;97946.75;5020352;28;20115;-65
2022/03/17 01:10:42;;;;;;;32.63;18.92;;;;;;;4.08;88.35;97930.63;5025155;28;20345;-66
2022/03/17 01:13:09;;;;;;;33.15;19.65;;;;;;;3.92;89.00;97933.63;5024079;28;20119;-66
2022/03/17 01:15:35;;;;;;;34.22;20.38;;;;;;;3.68;89.74;97933.03;5025723;28;20049;-65
2022/03/17 01:18:02;;;;;;;35.00;20.33;;;;;;;3.60;90.75;97942.00;5025022;28;20041;-65
2022/03/17 01:20:29;;;;;;;37.88;21.45;;;;;;;3.49;91.17;97928.13;5026472;28;20420;-67
2022/03/17 01:22:56;;;;;;;35.88;20.73;;;;;;;3.45;91.14;97932.22;5025342;28;20041;-65
2022/03/17 01:25:22;;;;;;;38.20;21.92;;;;;;;3.37;91.26;97929.66;5025905;28;20054;-66
2022/03/17 01:27:49;;;;;;;38.35;22.67;;;;;;;3.39;91.84;97930.28;5024273;28;20050;-67
2022/03/17 01:30:17;;;;;;;39.22;22.65;;;;;;;3.39;91.43;97927.63;5025000;28;20072;-65
2022/03/17 01:32:43;;;;;;;36.22;21.60;;;;;;;3.45;91.39;97921.50;5025945;28;20440;-66
2022/03/17 01:35:10;;;;;;;38.13;21.50;;;;;;;3.40;91.28;97918.59;5025066;28;20041;-65
2022/03/17 01:37:37;;;;;;;41.55;22.08;;;;;;;3.43;91.59;97920.84;5025096;28;20683;-66
2022/03/17 01:40:04;;;;;;;41.25;22.35;;;;;;;3.30;91.74;97923.41;5025583;28;20053;-66
2022/03/17 01:42:32;;;;;;;37.53;22.40;;;;;;;3.28;91.99;97920.94;5023335;28;20041;-67
2022/03/17 01:44:58;;;;;;;36.92;22.10;;;;;;;3.23;91.63;97918.00;5025014;28;20041;-65
2022/03/17 01:47:28;;;;;;;40.83;23.77;;;;;;;3.28;92.24;97922.78;5024919;28;20045;-66
2022/03/17 01:49:54;;;;;;;40.65;24.00;;;;;;;3.35;92.41;97926.34;5025446;28;20041;-65
2022/03/17 01:52:21;;;;;;;42.38;23.75;;;;;;;3.51;91.61;97923.41;5024725;28;20045;-67
2022/03/17 01:54:48;;;;;;;42.42;22.52;;;;;;;3.62;92.69;97926.59;5021873;28;20668;-66
2022/03/17 01:57:14;;;;;;;38.70;22.52;;;;;;;3.63;92.23;97925.56;5023405;28;20037;-65
2022/03/17 01:59:41;;;;;;;37.78;22.65;;;;;;;3.53;90.92;97927.75;5024389;28;20045;-66
2022/03/17 02:02:10;;;;;;;38.45;20.48;;;;;;;3.58;90.89;97928.00;5025264;28;20493;-65
2022/03/17 02:04:37;;;;;;;35.25;21.08;;;;;;;3.74;90.19;97921.53;5024858;28;20117;-65
2022/03/17 02:07:05;;;;;;;35.53;20.55;;;;;;;3.93;89.49;97922.69;5023485;28;20056;-66
2022/03/17 02:09:33;;;;;;;34.92;20.42;;;;;;;3.90;89.63;97931.97;5025157;28;20041;-65
2022/03/17 02:14:53;;;;;;;34.95;19.90;;;;;;;3.55;90.52;97931.06;5024143;28;20048;-65
2022/03/17 02:17:22;;;;;;;37.33;21.42;;;;;;;3.54;91.04;97934.75;5025147;28;20049;-66
2022/03/17 02:19:50;;;;;;;39.55;23.20;;;;;;;3.51;91.36;97934.13;5037037;28;20123;-65
2022/03/17 02:22:19;;;;;;;37.38;21.15;;;;;;;3.68;91.25;97936.53;5026452;28;20464;-66
2022/03/17 02:27:47;;;;;;;38.20;21.65;;;;;;;3.63;90.83;97938.97;5025298;28;20041;-64
2022/03/17 02:30:17;;;;;;;37.92;21.25;;;;;;;3.58;91.30;97942.19;5029722;28;20536;-65
2022/03/17 02:32:44;;;;;;;37.47;21.35;;;;;;;3.54;91.38;97934.75;5028994;28;20071;-65
2022/03/17 02:35:17;;;;;;;34.80;20.23;;;;;;;3.52;91.27;97932.28;5029259;28;20037;-66
2022/03/17 02:37:43;;;;;;;35.70;20.95;;;;;;;3.68;91.04;97936.53;5028916;28;20064;-65
2022/03/17 02:40:11;;;;;;;36.40;21.38;;;;;;;3.71;91.17;97933.47;5028707;28;20049;-64
2022/03/17 02:42:38;;;;;;;35.40;21.25;;;;;;;3.64;91.07;97937.94;5034149;28;20045;-65
2022/03/17 02:45:07;;;;;;;37.60;20.30;;;;;;;3.59;91.42;97926.97;5030373;28;20488;-66
2022/03/17 02:47:34;;;;;;;33.47;20.30;;;;;;;3.68;91.14;97931.16;5008350;28;20100;-64
2022/03/17 02:50:01;;;;;;;37.28;20.35;;;;;;;3.69;90.84;97926.66;5015926;28;20583;-66
2022/03/17 02:52:29;;;;;;;36.83;19.40;;;;;;;3.86;91.08;97929.84;5020509;28;20072;-65
2022/03/17 02:54:56;;;;;;;34.33;20.08;;;;;;;3.95;90.03;97934.06;5027435;28;20041;-66
2022/03/17 02:57:23;;;;;;;35.13;20.48;;;;;;;3.80;90.35;97936.00;5025600;28;20781;-64
2022/03/17 02:59:51;;;;;;;35.05;20.17;;;;;;;3.72;91.27;97926.28;5026732;28;20531;-66
2022/03/17 03:02:19;;;;;;;37.88;20.60;;;;;;;3.74;92.25;97935.75;5028429;28;20044;-65
2022/03/17 03:04:46;;;;;;;36.72;20.75;;;;;;;3.81;91.52;97935.81;5028705;28;20049;-65
2022/03/17 03:07:12;;;;;;;35.15;20.67;;;;;;;3.82;90.95;97933.94;5028739;28;20111;-65
2022/03/17 03:09:39;;;;;;;35.42;20.33;;;;;;;3.91;90.68;97938.16;5028700;28;20072;-66
2022/03/17 03:12:06;;;;;;;31.50;18.88;;;;;;;4.02;90.09;97939.47;5028543;28;20053;-65
2022/03/17 03:14:33;;;;;;;32.63;20.45;;;;;;;3.90;90.55;97933.81;5028484;28;20041;-66
2022/03/17 03:17:00;;;;;;;33.95;19.65;;;;;;;3.90;90.86;97940.00;5019266;28;20041;-66
2022/03/17 03:19:27;;;;;;;36.58;20.85;;;;;;;4.03;90.26;97943.81;5028899;28;20037;-65
2022/03/17 03:21:53;;;;;;;35.80;20.27;;;;;;;4.00;90.21;97938.81;5028105;28;20194;-66
2022/03/17 03:24:20;;;;;;;37.63;20.77;;;;;;;3.90;90.97;97942.69;5027482;28;20505;-65
2022/03/17 03:26:46;;;;;;;35.70;20.42;;;;;;;3.83;91.11;97944.47;5026699;28;20045;-66
2022/03/17 03:31:45;;;;;;;36.40;21.73;;;;;;;3.95;90.89;97946.63;5028226;28;20044;-66
2022/03/17 03:34:12;;;;;;;38.58;22.17;;;;;;;3.98;91.18;97952.41;5027989;28;20170;-66
2022/03/17 03:39:24;;;;;;;37.60;21.25;;;;;;;3.83;91.54;97957.06;5007095;28;20053;-65
2022/03/17 03:41:50;;;;;;;41.28;22.45;;;;;;;3.96;92.33;97954.47;5028053;28;20033;-66
2022/03/17 03:44:17;;;;;;;36.63;21.98;;;;;;;4.01;91.02;97962.75;5027043;28;20037;-65
2022/03/17 03:46:44;;;;;;;38.53;21.73;;;;;;;4.09;91.06;97972.50;5027336;28;20064;-65
2022/03/17 03:49:11;;;;;;;35.35;21.67;;;;;;;4.04;91.09;97969.56;5028094;28;20041;-64
2022/03/17 03:51:37;;;;;;;38.20;20.58;;;;;;;4.16;91.68;97973.38;5029965;28;20124;-66
2022/03/17 03:54:16;;;;;;;32.60;19.48;;;;;;;4.09;90.17;97975.16;5027228;28;20041;-67
2022/03/17 03:56:48;;;;;;;33.83;20.70;;;;;;;4.03;90.64;97976.78;5027262;28;20037;-65
2022/03/17 03:59:21;;;;;;;;;;;;;;;3.93;91.40;97984.34;5025327;28;20045;-65
2022/03/17 04:01:52;;;;;;;35.97;19.95;;;;;;;3.91;91.59;97991.75;5027589;28;19921;-66
2022/03/17 04:04:21;;;;;;;41.53;21.77;;;;;;;3.94;91.49;97982.50;5026940;28;20497;-65
2022/03/17 04:06:49;;;;;;;35.05;19.17;;;;;;;3.99;91.32;97985.41;5021411;28;20124;-66
2022/03/17 04:09:18;;;;;;;36.58;20.70;;;;;;;4.17;90.59;97987.63;5019299;28;20060;-67
2022/03/17 04:11:46;;;;;;;36.70;21.25;;;;;;;4.10;90.54;97986.72;5018437;28;20053;-65
2022/03/17 04:14:14;;;;;;;36.45;20.15;;;;;;;3.96;91.43;97986.63;5016733;28;20038;-66
2022/03/17 04:16:40;;;;;;;40.28;20.88;;;;;;;3.99;91.73;97982.72;5027044;28;20071;-66
2022/03/17 04:19:09;;;;;;;36.80;21.10;;;;;;;4.06;91.89;97993.50;5026181;28;20053;-65
2022/03/17 04:21:36;;;;;;;45.80;22.77;;;;;;;4.16;91.55;97989.47;5026813;28;20041;-66
2022/03/17 04:24:03;;;;;;;37.03;21.63;;;;;;;4.27;90.83;97997.97;5026717;28;20420;-67
2022/03/17 04:26:30;;;;;;;34.78;21.20;;;;;;;4.18;90.94;97999.16;5038322;28;20048;-67
2022/03/17 04:28:56;;;;;;;35.83;21.70;;;;;;;4.09;91.28;97999.28;5027100;28;20045;-66
2022/03/17 04:31:23;;;;;;;40.03;22.30;;;;;;;4.18;92.45;97997.31;5027503;28;20124;-65
2022/03/17 04:33:51;;;;;;;38.53;20.63;;;;;;;4.21;91.90;98001.44;5026962;28;20095;-65
2022/03/17 04:36:18;;;;;;;38.65;21.42;;;;;;;4.46;92.26;97993.75;5026839;28;20489;-64
2022/03/17 04:38:45;;;;;;;39.53;22.77;;;;;;;4.49;91.25;98001.41;5027151;28;20057;-65
2022/03/17 04:41:13;;;;;;;39.53;21.60;;;;;;;4.55;90.00;98007.84;5027105;28;20045;-67
2022/03/17 04:43:40;;;;;;;38.22;22.83;;;;;;;4.64;90.21;98011.22;5026554;28;20045;-65
2022/03/17 04:46:07;;;;;;;35.22;20.23;;;;;;;4.63;88.65;98006.84;5022162;28;20042;-66
2022/03/17 04:48:34;;;;;;;32.65;19.63;;;;;;;4.34;90.15;98012.25;5019067;28;20040;-64
2022/03/17 04:51:01;;;;;;;34.53;19.92;;;;;;;4.29;90.36;98015.53;5026230;28;20042;-67
2022/03/17 04:53:32;;;;;;;37.15;21.58;;;;;;;4.23;92.08;98021.66;5026398;28;20501;-65
2022/03/17 04:56:17;;;;;;;36.50;21.80;;;;;;;4.24;91.28;98022.50;5026450;28;20034;-65
2022/03/17 04:58:45;;;;;;;39.42;21.63;;;;;;;4.28;92.64;98021.91;5023779;28;20052;-65
2022/03/17 05:01:14;;;;;;;40.58;21.88;;;;;;;4.34;90.80;98022.97;5026815;28;20132;-66
2022/03/17 05:03:41;;;;;;;36.25;20.55;;;;;;;4.28;91.11;98029.94;5026448;28;20140;-65
2022/03/17 05:06:13;;;;;;;41.20;21.83;;;;;;;4.31;91.34;98027.91;5032553;28;20033;-65
2022/03/17 05:08:40;;;;;;;34.55;21.13;;;;;;;4.34;91.01;98031.03;5045021;28;20091;-66
2022/03/17 05:11:10;;;;;;;44.00;21.95;;;;;;;4.34;90.89;98028.34;5026718;28;20578;-66
2022/03/17 05:13:37;;;;;;;37.40;20.98;;;;;;;4.32;91.02;98027.72;5026259;28;20053;-65
2022/03/17 05:16:05;;;;;;;34.63;20.85;;;;;;;4.40;90.91;98029.41;5013851;28;20046;-66
2022/03/17 05:18:33;;;;;;;34.40;20.25;;;;;;;4.42;91.05;98025.50;5016692;28;20033;-66
2022/03/17 05:21:00;;;;;;;35.38;20.33;;;;;;;4.55;90.88;98037.34;5026185;28;20045;-66
2022/03/17 05:23:27;;;;;;;34.22;19.85;;;;;;;4.42;90.54;98048.81;5026237;28;20464;-66
2022/03/17 05:25:53;;;;;;;36.55;19.70;;;;;;;4.39;nan;98047.34;5025541;28;20041;-66
2022/03/17 05:28:20;;;;;;;33.65;20.20;;;;;;;4.38;91.02;98050.22;5025160;28;20057;-67
2022/03/17 05:30:47;;;;;;;38.83;20.35;;;;;;;4.35;91.29;98053.31;5025918;28;20053;-65
2022/03/17 05:33:14;;;;;;;39.13;22.13;;;;;;;4.49;93.68;98055.06;5025827;28;20053;-65
2022/03/17 05:35:42;;;;;;;36.78;21.02;;;;;;;4.67;91.77;98051.03;5025753;28;20049;-66
2022/03/17 05:38:10;;;;;;;36.72;19.85;;;;;;;4.74;90.47;98054.59;5025694;28;20050;-65
2022/03/17 05:40:37;;;;;;;35.17;20.70;;;;;;;4.78;89.45;98055.03;5025513;28;20059;-67
2022/03/17 05:43:06;;;;;;;36.10;20.20;;;;;;;4.79;89.72;98049.47;5025323;28;20103;-65
2022/03/17 05:45:34;;;;;;;32.40;19.73;;;;;;;4.68;89.41;98053.53;5025742;28;20512;-66
2022/03/17 05:48:03;;;;;;;35.28;21.25;;;;;;;4.78;90.16;98057.72;5025821;28;20579;-67
2022/03/17 05:50:33;;;;;;;31.85;20.13;;;;;;;4.79;89.19;98052.16;5025697;28;20103;-65
2022/03/17 05:52:59;;;;;;;33.92;19.65;;;;;;;4.59;90.62;98057.41;5025188;28;20132;-65
2022/03/17 05:55:26;;;;;;;39.00;21.08;;;;;;;4.34;91.59;98051.63;5022515;28;20033;-66
2022/03/17 05:57:55;;;;;;;38.63;20.60;;;;;;;4.42;92.86;98054.16;5025379;28;20053;-66
2022/03/17 06:00:23;;;;;;;35.92;22.17;;;;;;;4.60;93.07;98052.88;5025863;28;20053;-65
2022/03/17 06:02:51;;;;;;;39.25;22.83;;;;;;;4.72;91.57;98058.50;5023472;28;20459;-65
2022/03/17 06:05:18;;;;;;;38.45;22.85;;;;;;;4.76;90.59;98054.41;5022996;28;20030;-66
2022/03/17 06:07:50;;;;;;;38.17;22.20;;;;;;;4.71;91.66;98062.22;5022708;28;20120;-65
2022/03/17 06:10:27;;;;;;;42.42;24.05;;;;;;;4.54;93.43;98076.75;5021819;28;20045;-66
2022/03/17 06:12:54;;;;;;;43.10;25.17;;;;;;;4.75;94.34;98080.41;5023320;28;20048;-66
2022/03/17 06:15:23;;;;;;;47.22;23.38;;;;;;;4.73;93.20;98081.63;5023330;28;20034;-64
2022/03/17 06:17:53;;;;;;;38.97;23.15;;;;;;;4.78;93.30;98082.69;5021706;28;20037;-66
2022/03/17 06:20:23;;;;;;;42.05;23.65;;;;;;;4.94;93.26;98088.78;5023402;28;20496;-65
2022/03/17 06:22:52;;;;;;;43.70;24.05;;;;;;;5.10;92.12;98094.84;5026775;28;20045;-66
2022/03/17 06:25:21;;;;;;;43.85;25.50;;;;;;;5.20;91.49;98101.50;5023392;28;20037;-66
2022/03/17 06:27:49;;;;;;;42.05;23.13;;;;;;;5.26;91.07;98099.03;5022560;28;20049;-65
2022/03/17 06:30:18;;;;;;;38.38;22.30;;;;;;;5.21;90.95;98113.09;5023821;28;20050;-67
2022/03/17 06:32:45;;;;;;;36.72;21.98;;;;;;;5.08;91.78;98101.25;5016154;28;20417;-65
2022/03/17 06:35:17;;;;;;;35.78;21.55;;;;;;;5.06;92.53;98107.84;5022975;28;20103;-65
2022/03/17 06:37:52;;;;;;;40.20;22.83;;;;;;;5.22;92.93;98117.41;5023084;28;20052;-65
2022/03/17 06:40:20;;;;;;;41.15;23.70;;;;;;;5.19;92.22;98121.34;5023142;28;20092;-68
2022/03/17 06:42:48;;;;;;;39.08;23.52;;;;;;;5.24;93.05;98123.44;5022833;28;20053;-66
2022/03/17 06:45:16;;;;;;;39.67;24.02;;;;;;;5.23;92.43;98131.69;5022682;28;20701;-66
2022/03/17 06:47:42;;;;;;;40.85;24.33;;;;;;;5.20;93.22;98130.22;5016455;28;20056;-66
2022/03/17 06:50:11;;;;;;;42.55;22.80;;;;;;;5.32;93.73;98139.38;5019716;28;20602;-66
2022/03/17 06:52:38;;;;;;;41.08;22.73;;;;;;;5.40;92.83;98138.38;5017161;28;20049;-66
2022/03/17 06:55:06;;;;;;;38.50;23.98;;;;;;;5.48;92.28;98140.06;5013877;28;20060;-66
2022/03/17 06:57:32;;;;;;;40.80;23.58;;;;;;;5.58;91.92;98143.22;5014846;28;20116;-65
2022/03/17 07:00:03;;;;;;;38.20;21.98;;;;;;;5.67;91.33;98143.00;5023850;28;20049;-65
2022/03/17 07:02:30;;;;;;;39.20;22.45;;;;;;;5.77;91.15;98143.47;5023371;28;20048;-66
2022/03/17 07:04:56;;;;;;;35.53;20.65;;;;;;;5.85;90.43;98137.94;5021646;28;20123;-65
2022/03/17 07:07:23;;;;;;;37.35;22.95;;;;;;;5.95;90.04;98148.28;5023478;28;20050;-67
2022/03/17 07:09:50;;;;;;;38.97;21.70;;;;;;;6.01;89.95;98145.81;5006091;28;20041;-66
2022/03/17 07:12:16;;;;;;;37.33;21.45;;;;;;;6.18;87.58;98148.97;5022383;28;20421;-67
2022/03/17 07:14:43;;;;;;;37.58;23.35;;;;;;;6.30;85.50;98149.22;5021472;28;20038;-65
2022/03/17 07:17:10;;;;;;;38.88;22.98;;;;;;;6.27;85.97;98153.16;5020029;28;20582;-65
2022/03/17 07:19:37;;;;;;;37.80;23.00;;;;;;;6.32;86.40;98145.28;5023063;28;20773;-65
2022/03/17 07:22:04;;;;;;;36.80;22.38;;;;;;;6.45;85.88;98146.34;5024846;28;20045;-65
2022/03/17 07:24:31;;;;;;;36.92;21.58;;;;;;;6.60;84.12;98151.53;5026221;28;20099;-65
2022/03/17 07:26:59;;;;;;;36.30;22.33;;;;;;;6.63;83.78;98167.22;5026418;28;20091;-66
2022/03/17 07:29:28;;;;;;;37.95;21.70;;;;;;;6.70;83.27;98168.06;5026058;28;20049;-66
2022/03/17 07:31:56;;;;;;;33.33;20.63;;;;;;;6.89;82.28;98166.41;5024888;28;20064;-65
2022/03/17 07:34:24;;;;;;;36.80;20.23;;;;;;;7.06;81.78;98168.66;5026295;28;20041;-66
2022/03/17 07:36:51;;;;;;;33.22;20.70;;;;;;;7.09;82.42;98173.66;5027989;28;20084;-65
2022/03/17 07:39:18;;;;;;;38.45;20.92;;;;;;;7.00;82.83;98178.41;5027977;28;20165;-65
2022/03/17 07:41:44;;;;;;;32.85;21.05;;;;;;;7.02;83.65;98170.97;5028135;28;20053;-65
2022/03/17 07:44:12;;;;;;;33.17;20.05;;;;;;;7.10;83.30;98177.16;5028064;28;20048;-67
2022/03/17 07:47:02;;;;;;;32.45;20.92;;;;;;;7.28;81.68;98185.41;5025929;28;20057;-65
2022/03/17 07:49:36;;;;;;;32.38;19.27;;;;;;;7.40;81.21;98182.91;5026671;28;20336;-67
2022/03/17 07:52:04;;;;;;;32.72;20.70;;;;;;;7.40;81.04;98190.97;5027681;28;20045;-67
2022/03/17 07:54:31;;;;;;;32.38;20.40;;;;;;;7.36;81.93;98191.59;5027989;28;20045;-67
2022/03/17 07:56:59;;;;;;;32.10;20.00;;;;;;;7.28;81.69;98192.66;5023454;28;20092;-66
2022/03/17 07:59:27;;;;;;;31.80;18.52;;;;;;;7.38;81.31;98198.44;5021308;28;20053;-57
2022/03/17 08:01:54;;;;;;;35.05;19.33;;;;;;;7.40;81.24;98195.53;5023685;28;20489;-58
2022/03/17 08:04:21;;;;;;;31.20;18.98;;;;;;;7.44;81.18;98193.25;5024525;28;20064;-56
2022/03/17 08:06:50;;;;;;;35.72;20.45;;;;;;;7.40;80.96;98201.75;5025132;28;20038;-57
2022/03/17 08:09:17;;;;;;;33.15;20.10;;;;;;;7.51;81.68;98204.84;5025330;28;20049;-57
2022/03/17 08:11:46;;;;;;;35.83;21.23;;;;;;;7.57;81.30;98205.84;5025584;28;20045;-54
2022/03/17 08:14:16;;;;;;;30.55;19.52;;;;;;;7.67;80.75;98204.38;5031012;28;20053;-54
2022/03/17 08:16:44;;;;;;;34.15;19.40;;;;;;;7.76;80.42;98206.84;5023928;28;20048;-52
2022/03/17 08:19:11;;;;;;;37.40;20.30;;;;;;;7.73;80.86;98201.84;5027538;28;20042;-53
2022/03/17 08:21:39;;;;;;;32.75;19.65;;;;;;;7.67;80.76;98206.25;5027034;28;20053;-55
2022/03/17 08:24:07;;;;;;;31.85;19.63;;;;;;;7.70;80.67;98207.69;5034631;28;20041;-56
2022/03/17 08:26:34;;;;;;;41.03;21.45;;;;;;;7.68;80.41;98203.31;5046298;28;20056;-55
2022/03/17 08:29:01;;;;;;;32.95;19.98;;;;;;;7.73;80.42;98208.09;5046926;28;20049;-53
2022/03/17 08:31:28;;;;;;;36.67;19.25;;;;;;;7.78;80.77;98208.28;5045454;28;20060;-55
2022/03/17 08:33:57;;;;;;;32.67;20.52;;;;;;;7.77;80.50;98212.00;5027936;28;20144;-53
2022/03/17 08:36:24;;;;;;;34.40;19.38;;;;;;;7.97;80.57;98210.28;5026876;28;20049;-53
2022/03/17 08:38:52;;;;;;;36.65;21.08;;;;;;;8.03;80.50;98218.34;5027632;28;20084;-54
2022/03/17 08:41:20;;;;;;;33.40;19.08;;;;;;;8.06;79.80;98227.88;5022284;28;20046;-50
2022/03/17 08:43:48;;;;;;;29.40;17.40;;;;;;;8.16;78.60;98230.13;5007511;28;20116;-55
2022/03/17 08:49:18;;;;;;;34.00;17.67;;;;;;;8.27;78.54;98231.31;5007202;28;20042;-56
2022/03/17 08:51:47;;;;;;;33.50;17.65;;;;;;;8.37;77.77;98241.63;5024093;28;20041;-56
2022/03/17 08:54:14;;;;;;;31.45;19.15;;;;;;;8.42;77.83;98244.50;5025480;28;20041;-57
2022/03/17 08:56:41;;;;;;;34.92;18.98;;;;;;;8.44;78.29;98242.44;5021156;28;20070;-56
2022/03/17 08:59:10;;;;;;;32.72;17.55;;;;;;;8.54;78.54;98245.50;5020421;28;20048;-53
2022/03/17 09:01:39;;;;;;;32.40;18.95;;;;;;;8.56;78.55;98243.41;5022437;28;20045;-56
2022/03/17 09:04:06;;;;;;;29.10;18.60;;;;;;;8.70;77.59;98251.44;5025878;28;20042;-55
2022/03/17 09:06:35;;;;;;;32.97;18.27;;;;;;;8.79;77.29;98250.13;5023296;28;20049;-51
2022/03/17 09:09:01;;;;;;;32.47;20.92;;;;;;;8.69;78.67;98250.59;5023200;28;20052;-55
2022/03/17 09:11:28;;;;;;;37.40;19.23;;;;;;;8.69;78.47;98258.69;5022842;28;20037;-56
2022/03/17 09:13:55;;;;;;;35.50;20.00;;;;;;;8.71;77.90;98258.50;5021729;28;20702;-66
2022/03/17 09:16:21;;;;;;;34.10;20.48;;;;;;;8.88;77.01;98261.47;5022793;28;20438;-66
2022/03/17 09:18:48;;;;;;;34.30;20.60;;;;;;;8.87;77.31;98262.53;5020165;28;20052;-66
2022/03/17 09:21:14;;;;;;;33.30;20.08;;;;;;;8.89;77.68;98263.16;5023735;28;20057;-67
2022/03/17 09:23:41;;;;;;;30.20;18.95;;;;;;;9.17;76.47;98261.03;5023308;28;20045;-67
2022/03/17 09:26:07;;;;;;;28.98;18.23;;;;;;;9.26;76.71;98259.75;5020739;28;20400;-67
2022/03/17 09:28:35;;;;;;;30.10;17.73;;;;;;;9.21;76.82;98259.56;5027149;28;20037;-66
2022/03/17 09:31:01;;;;;;;30.70;19.20;;;;;;;9.22;76.57;98262.03;5026168;28;20041;-65
2022/03/17 09:33:28;;;;;;;28.83;19.27;;;;;;;9.15;76.76;98260.44;5028436;28;20068;-65
2022/03/17 09:35:56;;;;;;;28.10;17.65;;;;;;;9.32;76.52;98264.25;5025106;28;20517;-66
2022/03/17 09:38:24;;;;;;;28.15;18.02;;;;;;;9.46;76.21;98264.97;5026026;28;20046;-65
2022/03/17 09:40:51;;;;;;;33.42;18.75;;;;;;;9.50;76.13;98268.88;5023917;28;20041;-67
2022/03/17 09:43:18;;;;;;;34.47;18.33;;;;;;;9.45;75.54;98260.59;5022832;28;20049;-65
2022/03/17 09:45:51;;;;;;;29.17;18.55;;;;;;;9.54;75.40;98263.84;5025839;28;20095;-66
2022/03/17 09:48:19;;;;;;;26.83;17.27;;;;;;;9.74;74.38;98260.09;5024734;28;20077;-67
2022/03/17 09:50:47;;;;;;;27.75;17.23;;;;;;;9.75;75.44;98261.75;5021216;28;20041;-67
2022/03/17 09:53:13;;;;;;;25.38;16.60;;;;;;;9.68;74.44;98267.25;5021249;28;20038;-67
2022/03/17 09:55:43;;;;;;;27.75;18.08;;;;;;;9.76;74.92;98264.25;5019936;28;20056;-69
2022/03/17 09:58:11;;;;;;;26.00;17.17;;;;;;;9.91;75.15;98273.84;5007289;28;20056;-68
2022/03/17 10:00:52;;;;;;;26.00;16.30;;;;;;;10.13;73.94;98273.38;5026153;28;20682;-67
2022/03/17 10:03:25;;;;;;;27.15;16.67;;;;;;;10.23;74.69;98275.56;5025642;28;20037;-66
2022/03/17 10:05:54;;;;;;;27.60;18.17;;;;;;;10.23;74.44;98275.56;5025631;28;20046;-67
2022/03/17 10:08:23;;;;;;;34.92;17.23;;;;;;;10.29;73.54;98274.66;5025892;28;20104;-68
2022/03/17 10:10:52;;;;;;;29.02;17.25;;;;;;;10.34;72.89;98284.81;5022960;28;20068;-67
2022/03/17 10:13:25;;;;;;;28.80;17.48;;;;;;;10.23;73.84;98284.53;5024445;28;20207;-66
2022/03/17 10:16:22;;;;;;;28.38;17.17;;;;;;;10.11;74.73;98284.47;5024912;28;20069;-65
2022/03/17 10:18:57;;;;;;;30.45;17.80;;;;;;;10.47;73.28;98290.06;5022618;28;20136;-67
2022/03/17 10:21:27;;;;;;;28.98;17.08;;;;;;;10.74;72.86;98297.00;5023562;28;20042;-68
2022/03/17 10:24:08;;;;;;;30.98;17.75;;;;;;;10.67;71.80;98286.28;5019768;28;20068;-67
2022/03/17 10:26:49;;;;;;;27.55;16.40;;;;;;;10.29;72.97;98296.31;5020760;28;20083;-68
2022/03/17 10:29:22;;;;;;;31.55;17.95;;;;;;;10.38;72.79;98302.25;5019191;28;20033;-65
2022/03/17 10:31:52;;;;;;;34.47;18.95;;;;;;;10.15;73.86;98295.66;5020884;28;20077;-66
2022/03/17 10:34:21;;;;;;;27.63;18.10;;;;;;;10.00;74.11;98306.84;5022682;28;20127;-67
2022/03/17 10:36:49;;;;;;;26.55;17.88;;;;;;;10.20;72.45;98311.19;5025240;28;20414;-68
2022/03/17 10:39:16;;;;;;;31.48;18.83;;;;;;;10.07;73.25;98315.75;5022338;28;20045;-64
2022/03/17 10:41:45;;;;;;;29.85;18.98;;;;;;;10.23;72.79;98316.16;5023801;28;20033;-67
2022/03/17 10:44:15;;;;;;;30.58;19.80;;;;;;;10.08;72.97;98316.53;5021730;28;20061;-68
2022/03/17 10:47:01;;;;;;;33.65;18.73;;;;;;;9.66;74.83;98323.41;5021706;28;20049;-68
2022/03/17 10:49:29;;;;;;;29.25;18.73;;;;;;;9.74;74.47;98333.13;5042156;28;20053;-67
2022/03/17 10:51:57;;;;;;;33.78;19.13;;;;;;;9.63;75.09;98331.97;5034437;28;20037;-67
2022/03/17 10:54:24;;;;;;;29.42;19.55;;;;;;;9.65;74.73;98335.28;5026936;28;20049;-66
2022/03/17 10:57:11;;;;;;;32.97;20.05;;;;;;;9.65;75.37;98334.47;5026065;28;20410;-67
2022/03/17 10:59:43;;;;;;;30.88;19.15;;;;;;;9.68;75.86;98332.13;5025222;28;20053;-67
2022/03/17 11:02:12;;;;;;;35.30;20.65;;;;;;;9.70;76.83;98334.63;5030545;28;20063;-68
2022/03/17 11:04:43;;;;;;;34.03;20.48;;;;;;;9.68;75.99;98345.66;5036097;28;20061;-65
2022/03/17 11:07:15;;;;;;;33.40;22.33;;;;;;;9.72;77.94;98344.16;5026676;28;20432;-68
2022/03/17 11:09:43;;;;;;;33.92;20.70;;;;;;;9.79;77.40;98349.50;5027427;28;20559;-65
2022/03/17 11:12:20;;;;;;;34.80;21.98;;;;;;;9.72;78.19;98351.44;5026090;28;20041;-65
2022/03/17 11:14:51;;;;;;;42.47;21.88;;;;;;;9.70;77.80;98351.66;5027222;28;20188;-66
2022/03/17 11:17:26;;;;;;;39.35;22.13;;;;;;;9.81;77.75;98352.00;5025066;28;20120;-65
2022/03/17 11:19:58;;;;;;;34.00;21.95;;;;;;;9.72;78.95;98351.44;5026726;28;20064;-65
2022/03/17 11:22:29;;;;;;;35.80;23.10;;;;;;;9.67;78.18;98357.53;5023728;28;20044;-66
2022/03/17 11:25:17;;;;;;;36.90;24.03;;;;;;;9.72;79.44;98352.28;5024352;28;20099;-66
2022/03/17 11:27:48;;;;;;;34.40;21.73;;;;;;;9.81;77.84;98358.25;5023527;28;20049;-67
2022/03/17 11:30:17;;;;;;;39.42;22.20;;;;;;;9.85;78.50;98362.13;5026563;28;20077;-67
2022/03/17 11:32:54;;;;;;;39.38;23.10;;;;;;;10.01;77.68;98349.94;5025674;28;20053;-67
2022/03/17 11:35:29;;;;;;;33.70;21.55;;;;;;;9.93;78.68;98355.63;5026820;28;20075;-66
2022/03/17 11:38:16;;;;;;;40.03;22.77;;;;;;;9.90;79.50;98361.47;5026047;28;20046;-66
2022/03/17 11:41:07;;;;;;;42.30;24.30;;;;;;;9.78;80.49;98366.78;5026541;28;20658;-67
2022/03/17 11:44:02;;;;;;;43.97;26.63;;;;;;;9.88;81.00;98359.00;5033305;28;20576;-69
2022/03/17 11:46:38;;;;;;;41.70;25.30;;;;;;;10.09;79.69;98367.75;5025395;28;20061;-66
2022/03/17 11:49:19;;;;;;;46.85;27.00;;;;;;;10.07;79.44;98364.44;5026494;28;20694;-68
2022/03/17 11:52:01;;;;;;;47.95;27.60;;;;;;;10.02;79.55;98366.97;5026137;28;20045;-69
2022/03/17 11:54:28;;;;;;;;;;;;;;;10.00;80.20;98367.19;5026343;28;20497;-67
2022/03/17 11:56:58;;;;;;;52.80;32.17;;;;;;;9.42;83.50;98366.47;5026129;28;19924;-66
2022/03/17 11:59:51;;;;;;;56.88;32.22;;;;;;;9.67;81.39;98371.06;5029702;28;20042;-66